CLL3 weather

Lac Lamothe Water Aerodrome
Lac Lamothe, Quebec, Canada

Public forecast

Using degrees Celsius for public forecast. Weather courtesy of forecast.io.

METAR (pilot weather report)

Closest report is CFB Bagotville, 25.2 nm (46.6 km) SSE. Retrieved 2019/05/22 06:00 UTC (46 minutes ago):

CYBG 220600Z 28008KT 20SM FEW028 SCT080 04/03 A3008 RMK SC2AC2 SLP192

TAF (pilot weather forecast)

Closest forecast is CFB Bagotville, 25.2 nm (46.6 km) SSE. Retrieved 2019/05/22 06:33 UTC (13 minutes ago):

TAF TAF CYBG 220530Z 2206/2306 29008KT P6SM SCT025 BKN070 TEMPO 2206/2210 BKN020 FM221000 29010KT P6SM SCT020 TEMPO 2210/2213 BKN020 FM221700 30012KT P6SM BKN050 FM222200 36005KT P6SM FEW060 BECMG 2300/2302 09005KT FM230400 09005KT P6SM BKN220 RMK NXT FCST BY 221200Z